sensor_id;sensor_type;location;lat;lon;timestamp;P1;durP1;ratioP1;P2;durP2;ratioP2
13710;SDS011;6927;51.256;9.410;2024-03-17T00:01:10;1999.90;;;999.90;;
13710;SDS011;6927;51.256;9.410;2024-03-17T00:03:36;1999.90;;;999.90;;
13710;SDS011;6927;51.256;9.410;2024-03-17T00:06:02;1999.90;;;999.90;;
13710;SDS011;6927;51.256;9.410;2024-03-17T00:08:27;1999.90;;;999.90;;
13710;SDS011;6927;51.256;9.410;2024-03-17T00:10:53;1999.90;;;999.90;;
13710;SDS011;6927;51.256;9.410;2024-03-17T00:13:22;1999.90;;;999.90;;
13710;SDS011;6927;51.256;9.410;2024-03-17T00:15:49;1999.90;;;999.90;;
13710;SDS011;6927;51.256;9.410;2024-03-17T00:18:15;1999.90;;;999.90;;
13710;SDS011;6927;51.256;9.410;2024-03-17T00:20:41;1999.90;;;999.90;;
13710;SDS011;6927;51.256;9.410;2024-03-17T00:23:09;1999.90;;;999.90;;
13710;SDS011;6927;51.256;9.410;2024-03-17T00:25:36;1999.90;;;999.90;;
13710;SDS011;6927;51.256;9.410;2024-03-17T00:28:03;1999.90;;;999.90;;
13710;SDS011;6927;51.256;9.410;2024-03-17T00:30:28;1999.90;;;999.90;;
13710;SDS011;6927;51.256;9.410;2024-03-17T00:32:54;1999.90;;;999.90;;
13710;SDS011;6927;51.256;9.410;2024-03-17T00:35:20;1999.90;;;999.90;;
13710;SDS011;6927;51.256;9.410;2024-03-17T00:37:49;1999.90;;;999.90;;
13710;SDS011;6927;51.256;9.410;2024-03-17T00:40:15;1999.90;;;999.90;;
13710;SDS011;6927;51.256;9.410;2024-03-17T00:42:42;1999.90;;;999.90;;
13710;SDS011;6927;51.256;9.410;2024-03-17T00:45:09;1999.90;;;999.90;;
13710;SDS011;6927;51.256;9.410;2024-03-17T00:47:36;1999.90;;;999.90;;
13710;SDS011;6927;51.256;9.410;2024-03-17T00:50:02;1999.90;;;999.90;;
13710;SDS011;6927;51.256;9.410;2024-03-17T00:52:29;1999.90;;;999.90;;
13710;SDS011;6927;51.256;9.410;2024-03-17T00:54:55;1999.90;;;999.90;;
13710;SDS011;6927;51.256;9.410;2024-03-17T00:57:20;1999.90;;;999.90;;
13710;SDS011;6927;51.256;9.410;2024-03-17T00:59:46;1999.90;;;999.90;;
13710;SDS011;6927;51.256;9.410;2024-03-17T01:02:11;1999.90;;;999.90;;
13710;SDS011;6927;51.256;9.410;2024-03-17T01:04:39;1999.90;;;999.90;;
13710;SDS011;6927;51.256;9.410;2024-03-17T01:07:05;1999.90;;;999.90;;
13710;SDS011;6927;51.256;9.410;2024-03-17T01:09:31;1999.90;;;999.90;;
13710;SDS011;6927;51.256;9.410;2024-03-17T01:11:56;1999.90;;;999.90;;
13710;SDS011;6927;51.256;9.410;2024-03-17T01:14:22;1999.90;;;999.90;;
13710;SDS011;6927;51.256;9.410;2024-03-17T01:16:47;1999.90;;;999.90;;
13710;SDS011;6927;51.256;9.410;2024-03-17T01:19:15;1999.90;;;999.90;;
13710;SDS011;6927;51.256;9.410;2024-03-17T01:21:40;1999.90;;;999.90;;
13710;SDS011;6927;51.256;9.410;2024-03-17T01:24:06;1999.90;;;999.90;;
13710;SDS011;6927;51.256;9.410;2024-03-17T01:26:32;1999.90;;;999.90;;
13710;SDS011;6927;51.256;9.410;2024-03-17T01:28:58;1999.90;;;999.90;;
13710;SDS011;6927;51.256;9.410;2024-03-17T01:31:23;1999.90;;;999.90;;
13710;SDS011;6927;51.256;9.410;2024-03-17T01:33:50;1999.90;;;999.90;;
13710;SDS011;6927;51.256;9.410;2024-03-17T01:36:15;1999.90;;;999.90;;
13710;SDS011;6927;51.256;9.410;2024-03-17T01:38:41;1999.90;;;999.90;;
13710;SDS011;6927;51.256;9.410;2024-03-17T01:41:07;1999.90;;;999.90;;
13710;SDS011;6927;51.256;9.410;2024-03-17T01:43:32;1999.90;;;999.90;;
13710;SDS011;6927;51.256;9.410;2024-03-17T01:45:58;1999.90;;;999.90;;
13710;SDS011;6927;51.256;9.410;2024-03-17T01:48:24;1999.90;;;999.90;;
13710;SDS011;6927;51.256;9.410;2024-03-17T01:50:51;1999.90;;;999.90;;
13710;SDS011;6927;51.256;9.410;2024-03-17T01:53:21;1999.90;;;999.90;;
13710;SDS011;6927;51.256;9.410;2024-03-17T01:55:49;1999.90;;;999.90;;
13710;SDS011;6927;51.256;9.410;2024-03-17T01:58:15;1999.90;;;999.90;;
13710;SDS011;6927;51.256;9.410;2024-03-17T02:00:43;1999.90;;;999.90;;
13710;SDS011;6927;51.256;9.410;2024-03-17T02:03:08;1999.90;;;999.90;;
13710;SDS011;6927;51.256;9.410;2024-03-17T02:05:35;1999.90;;;999.90;;
13710;SDS011;6927;51.256;9.410;2024-03-17T02:08:02;1999.90;;;999.90;;
13710;SDS011;6927;51.256;9.410;2024-03-17T02:10:31;1999.90;;;999.90;;
13710;SDS011;6927;51.256;9.410;2024-03-17T02:12:58;1999.90;;;999.90;;
13710;SDS011;6927;51.256;9.410;2024-03-17T02:15:25;1999.90;;;999.90;;
13710;SDS011;6927;51.256;9.410;2024-03-17T02:17:50;1999.90;;;999.90;;
13710;SDS011;6927;51.256;9.410;2024-03-17T02:20:16;1999.90;;;999.90;;
13710;SDS011;6927;51.256;9.410;2024-03-17T02:22:42;1999.90;;;999.90;;
13710;SDS011;6927;51.256;9.410;2024-03-17T02:25:08;1999.90;;;999.90;;
13710;SDS011;6927;51.256;9.410;2024-03-17T02:27:34;1999.90;;;999.90;;
13710;SDS011;6927;51.256;9.410;2024-03-17T02:30:01;1999.90;;;999.90;;
13710;SDS011;6927;51.256;9.410;2024-03-17T02:32:33;1999.90;;;999.90;;
13710;SDS011;6927;51.256;9.410;2024-03-17T02:34:59;1999.90;;;999.90;;
13710;SDS011;6927;51.256;9.410;2024-03-17T02:37:25;1999.90;;;999.90;;
13710;SDS011;6927;51.256;9.410;2024-03-17T02:39:51;1999.90;;;999.90;;
13710;SDS011;6927;51.256;9.410;2024-03-17T02:42:17;1999.90;;;999.90;;
13710;SDS011;6927;51.256;9.410;2024-03-17T02:44:43;1999.90;;;999.90;;
13710;SDS011;6927;51.256;9.410;2024-03-17T02:47:09;1999.90;;;999.90;;
13710;SDS011;6927;51.256;9.410;2024-03-17T02:49:34;1999.90;;;999.90;;
13710;SDS011;6927;51.256;9.410;2024-03-17T02:52:06;1999.90;;;999.90;;
13710;SDS011;6927;51.256;9.410;2024-03-17T02:54:35;1999.90;;;999.90;;
13710;SDS011;6927;51.256;9.410;2024-03-17T02:57:02;1999.90;;;999.90;;
13710;SDS011;6927;51.256;9.410;2024-03-17T02:59:28;1999.90;;;999.90;;
13710;SDS011;6927;51.256;9.410;2024-03-17T03:01:54;1999.90;;;999.90;;
13710;SDS011;6927;51.256;9.410;2024-03-17T03:04:20;1999.90;;;999.90;;
13710;SDS011;6927;51.256;9.410;2024-03-17T03:06:46;1999.90;;;999.90;;
13710;SDS011;6927;51.256;9.410;2024-03-17T03:09:12;1999.90;;;999.90;;
13710;SDS011;6927;51.256;9.410;2024-03-17T03:11:40;1999.90;;;999.90;;
13710;SDS011;6927;51.256;9.410;2024-03-17T03:14:05;1999.90;;;999.90;;
13710;SDS011;6927;51.256;9.410;2024-03-17T03:16:32;1999.90;;;999.90;;
13710;SDS011;6927;51.256;9.410;2024-03-17T03:18:58;1999.90;;;999.90;;
13710;SDS011;6927;51.256;9.410;2024-03-17T03:21:24;1999.90;;;999.90;;
13710;SDS011;6927;51.256;9.410;2024-03-17T03:23:50;1999.90;;;999.90;;
13710;SDS011;6927;51.256;9.410;2024-03-17T03:26:16;1999.90;;;999.90;;
13710;SDS011;6927;51.256;9.410;2024-03-17T03:28:42;1999.90;;;999.90;;
13710;SDS011;6927;51.256;9.410;2024-03-17T03:31:11;1999.90;;;999.90;;
13710;SDS011;6927;51.256;9.410;2024-03-17T03:33:40;1999.90;;;999.90;;
13710;SDS011;6927;51.256;9.410;2024-03-17T03:36:12;1999.90;;;999.90;;
13710;SDS011;6927;51.256;9.410;2024-03-17T03:38:41;1999.90;;;999.90;;
13710;SDS011;6927;51.256;9.410;2024-03-17T03:41:08;1999.90;;;999.90;;
13710;SDS011;6927;51.256;9.410;2024-03-17T03:43:40;1999.90;;;999.90;;
13710;SDS011;6927;51.256;9.410;2024-03-17T03:46:07;1999.90;;;999.90;;
13710;SDS011;6927;51.256;9.410;2024-03-17T03:48:33;1999.90;;;999.90;;
13710;SDS011;6927;51.256;9.410;2024-03-17T03:51:05;1999.90;;;999.90;;
13710;SDS011;6927;51.256;9.410;2024-03-17T03:53:34;1999.90;;;999.90;;
13710;SDS011;6927;51.256;9.410;2024-03-17T03:56:02;1999.90;;;999.90;;
13710;SDS011;6927;51.256;9.410;2024-03-17T03:58:31;1999.90;;;999.90;;
13710;SDS011;6927;51.256;9.410;2024-03-17T04:01:00;1999.90;;;999.90;;
13710;SDS011;6927;51.256;9.410;2024-03-17T04:03:32;1999.90;;;999.90;;
13710;SDS011;6927;51.256;9.410;2024-03-17T04:06:02;1999.90;;;999.90;;
13710;SDS011;6927;51.256;9.410;2024-03-17T04:08:30;1999.90;;;999.90;;
13710;SDS011;6927;51.256;9.410;2024-03-17T04:10:56;1999.90;;;999.90;;
13710;SDS011;6927;51.256;9.410;2024-03-17T04:13:22;1999.90;;;999.90;;
13710;SDS011;6927;51.256;9.410;2024-03-17T04:15:48;1999.90;;;999.90;;
13710;SDS011;6927;51.256;9.410;2024-03-17T04:18:13;1999.90;;;999.90;;
13710;SDS011;6927;51.256;9.410;2024-03-17T04:20:40;1999.90;;;999.90;;
13710;SDS011;6927;51.256;9.410;2024-03-17T04:23:06;1999.90;;;999.90;;
13710;SDS011;6927;51.256;9.410;2024-03-17T04:25:32;1999.90;;;999.90;;
13710;SDS011;6927;51.256;9.410;2024-03-17T04:27:58;1999.90;;;999.90;;
13710;SDS011;6927;51.256;9.410;2024-03-17T04:30:23;1999.90;;;999.90;;
13710;SDS011;6927;51.256;9.410;2024-03-17T04:32:49;1999.90;;;999.90;;
13710;SDS011;6927;51.256;9.410;2024-03-17T04:35:15;1999.90;;;999.90;;
13710;SDS011;6927;51.256;9.410;2024-03-17T04:37:41;1999.90;;;999.90;;
13710;SDS011;6927;51.256;9.410;2024-03-17T04:40:07;1999.90;;;999.90;;
13710;SDS011;6927;51.256;9.410;2024-03-17T04:42:36;1999.90;;;999.90;;
13710;SDS011;6927;51.256;9.410;2024-03-17T04:45:03;1999.90;;;999.90;;
13710;SDS011;6927;51.256;9.410;2024-03-17T04:47:30;1999.90;;;999.90;;
13710;SDS011;6927;51.256;9.410;2024-03-17T04:49:56;1999.90;;;999.90;;
13710;SDS011;6927;51.256;9.410;2024-03-17T04:52:21;1999.90;;;999.90;;
13710;SDS011;6927;51.256;9.410;2024-03-17T04:54:47;1999.90;;;999.90;;
13710;SDS011;6927;51.256;9.410;2024-03-17T04:57:12;1999.90;;;999.90;;
13710;SDS011;6927;51.256;9.410;2024-03-17T04:59:38;1999.90;;;999.90;;
13710;SDS011;6927;51.256;9.410;2024-03-17T05:02:04;1999.90;;;999.90;;
13710;SDS011;6927;51.256;9.410;2024-03-17T05:04:30;1999.90;;;999.90;;
13710;SDS011;6927;51.256;9.410;2024-03-17T05:06:56;1999.90;;;999.90;;
13710;SDS011;6927;51.256;9.410;2024-03-17T05:09:22;1999.90;;;999.90;;
13710;SDS011;6927;51.256;9.410;2024-03-17T05:11:49;1999.90;;;999.90;;
13710;SDS011;6927;51.256;9.410;2024-03-17T05:14:17;1999.90;;;999.90;;
13710;SDS011;6927;51.256;9.410;2024-03-17T05:16:44;1999.90;;;999.90;;
13710;SDS011;6927;51.256;9.410;2024-03-17T05:19:09;1999.90;;;999.90;;
13710;SDS011;6927;51.256;9.410;2024-03-17T05:21:36;1999.90;;;999.90;;
13710;SDS011;6927;51.256;9.410;2024-03-17T05:24:01;1999.90;;;999.90;;
13710;SDS011;6927;51.256;9.410;2024-03-17T05:26:27;1999.90;;;999.90;;
13710;SDS011;6927;51.256;9.410;2024-03-17T05:28:53;1999.90;;;999.90;;
13710;SDS011;6927;51.256;9.410;2024-03-17T05:31:19;1999.90;;;999.90;;
13710;SDS011;6927;51.256;9.410;2024-03-17T05:33:46;1999.90;;;999.90;;
13710;SDS011;6927;51.256;9.410;2024-03-17T05:36:12;1999.90;;;999.90;;
13710;SDS011;6927;51.256;9.410;2024-03-17T05:38:38;1999.90;;;999.90;;
13710;SDS011;6927;51.256;9.410;2024-03-17T05:41:07;1999.90;;;999.90;;
13710;SDS011;6927;51.256;9.410;2024-03-17T05:43:37;1999.90;;;999.90;;
13710;SDS011;6927;51.256;9.410;2024-03-17T05:46:07;1999.90;;;999.90;;
13710;SDS011;6927;51.256;9.410;2024-03-17T05:48:34;1999.90;;;999.90;;
13710;SDS011;6927;51.256;9.410;2024-03-17T05:51:03;1999.90;;;999.90;;
13710;SDS011;6927;51.256;9.410;2024-03-17T05:53:32;1999.90;;;999.90;;
13710;SDS011;6927;51.256;9.410;2024-03-17T05:55:59;1999.90;;;999.90;;
13710;SDS011;6927;51.256;9.410;2024-03-17T05:58:25;1999.90;;;999.90;;
13710;SDS011;6927;51.256;9.410;2024-03-17T06:00:50;1999.90;;;999.90;;
13710;SDS011;6927;51.256;9.410;2024-03-17T06:03:16;1999.90;;;999.90;;
13710;SDS011;6927;51.256;9.410;2024-03-17T06:05:42;1999.90;;;999.90;;
13710;SDS011;6927;51.256;9.410;2024-03-17T06:08:11;1999.90;;;999.90;;
13710;SDS011;6927;51.256;9.410;2024-03-17T06:10:37;1999.90;;;999.90;;
13710;SDS011;6927;51.256;9.410;2024-03-17T06:13:07;1999.90;;;999.90;;
13710;SDS011;6927;51.256;9.410;2024-03-17T06:15:37;1999.90;;;999.90;;
13710;SDS011;6927;51.256;9.410;2024-03-17T06:18:03;1999.90;;;999.90;;
13710;SDS011;6927;51.256;9.410;2024-03-17T06:20:29;1999.90;;;999.90;;
13710;SDS011;6927;51.256;9.410;2024-03-17T06:22:55;1999.90;;;999.90;;
13710;SDS011;6927;51.256;9.410;2024-03-17T06:25:21;1999.90;;;999.90;;
13710;SDS011;6927;51.256;9.410;2024-03-17T06:27:51;1999.90;;;999.90;;
13710;SDS011;6927;51.256;9.410;2024-03-17T06:30:17;1999.90;;;999.90;;
13710;SDS011;6927;51.256;9.410;2024-03-17T06:32:43;1999.90;;;999.90;;
13710;SDS011;6927;51.256;9.410;2024-03-17T06:35:13;1999.90;;;999.90;;
13710;SDS011;6927;51.256;9.410;2024-03-17T06:37:43;1999.90;;;999.90;;
13710;SDS011;6927;51.256;9.410;2024-03-17T06:40:15;1999.90;;;999.90;;
13710;SDS011;6927;51.256;9.410;2024-03-17T06:42:40;1999.90;;;999.90;;
13710;SDS011;6927;51.256;9.410;2024-03-17T06:45:06;1999.90;;;999.90;;
13710;SDS011;6927;51.256;9.410;2024-03-17T06:47:36;1999.90;;;999.90;;
13710;SDS011;6927;51.256;9.410;2024-03-17T06:50:02;1999.90;;;999.90;;
13710;SDS011;6927;51.256;9.410;2024-03-17T06:52:28;1999.90;;;999.90;;
13710;SDS011;6927;51.256;9.410;2024-03-17T06:54:55;1999.90;;;999.90;;
13710;SDS011;6927;51.256;9.410;2024-03-17T06:57:20;1999.90;;;999.90;;
13710;SDS011;6927;51.256;9.410;2024-03-17T06:59:46;1999.90;;;999.90;;
13710;SDS011;6927;51.256;9.410;2024-03-17T07:02:13;1999.90;;;999.90;;
13710;SDS011;6927;51.256;9.410;2024-03-17T07:04:42;1999.90;;;999.90;;
13710;SDS011;6927;51.256;9.410;2024-03-17T07:07:08;1999.90;;;999.90;;
13710;SDS011;6927;51.256;9.410;2024-03-17T07:09:34;1999.90;;;999.90;;
13710;SDS011;6927;51.256;9.410;2024-03-17T07:11:59;1999.90;;;999.90;;
13710;SDS011;6927;51.256;9.410;2024-03-17T07:14:25;1999.90;;;999.90;;
13710;SDS011;6927;51.256;9.410;2024-03-17T07:16:51;1999.90;;;999.90;;
13710;SDS011;6927;51.256;9.410;2024-03-17T07:19:17;1999.90;;;999.90;;
13710;SDS011;6927;51.256;9.410;2024-03-17T07:21:42;1999.90;;;999.90;;
13710;SDS011;6927;51.256;9.410;2024-03-17T07:24:08;1999.90;;;999.90;;
13710;SDS011;6927;51.256;9.410;2024-03-17T07:26:33;1999.90;;;999.90;;
13710;SDS011;6927;51.256;9.410;2024-03-17T07:28:59;1999.90;;;999.90;;
13710;SDS011;6927;51.256;9.410;2024-03-17T07:31:25;1999.90;;;999.90;;
13710;SDS011;6927;51.256;9.410;2024-03-17T07:33:51;1999.90;;;999.90;;
13710;SDS011;6927;51.256;9.410;2024-03-17T07:36:16;1999.90;;;999.90;;
13710;SDS011;6927;51.256;9.410;2024-03-17T07:38:42;1999.90;;;999.90;;
13710;SDS011;6927;51.256;9.410;2024-03-17T07:41:08;1999.90;;;999.90;;
13710;SDS011;6927;51.256;9.410;2024-03-17T07:43:37;1999.90;;;999.90;;
13710;SDS011;6927;51.256;9.410;2024-03-17T07:46:07;1999.90;;;999.90;;
13710;SDS011;6927;51.256;9.410;2024-03-17T07:48:37;1999.90;;;999.90;;
13710;SDS011;6927;51.256;9.410;2024-03-17T07:51:05;1999.90;;;999.90;;
13710;SDS011;6927;51.256;9.410;2024-03-17T07:53:31;1999.90;;;999.90;;
13710;SDS011;6927;51.256;9.410;2024-03-17T07:56:01;1999.90;;;999.90;;
13710;SDS011;6927;51.256;9.410;2024-03-17T07:58:28;1999.90;;;999.90;;
13710;SDS011;6927;51.256;9.410;2024-03-17T08:01:28;1999.90;;;999.90;;
13710;SDS011;6927;51.256;9.410;2024-03-17T08:03:47;1999.90;;;999.90;;
13710;SDS011;6927;51.256;9.410;2024-03-17T08:06:20;1999.90;;;999.90;;
13710;SDS011;6927;51.256;9.410;2024-03-17T08:08:46;1999.90;;;999.90;;
13710;SDS011;6927;51.256;9.410;2024-03-17T08:11:11;1999.90;;;999.90;;
13710;SDS011;6927;51.256;9.410;2024-03-17T08:13:37;1999.90;;;999.90;;
13710;SDS011;6927;51.256;9.410;2024-03-17T08:16:05;1999.90;;;999.90;;
13710;SDS011;6927;51.256;9.410;2024-03-17T08:18:33;1999.90;;;999.90;;
13710;SDS011;6927;51.256;9.410;2024-03-17T08:20:59;1999.90;;;999.90;;
13710;SDS011;6927;51.256;9.410;2024-03-17T08:23:32;1999.90;;;999.90;;
13710;SDS011;6927;51.256;9.410;2024-03-17T08:25:59;1999.90;;;999.90;;
13710;SDS011;6927;51.256;9.410;2024-03-17T08:28:26;1999.90;;;999.90;;
13710;SDS011;6927;51.256;9.410;2024-03-17T08:30:59;1999.90;;;999.90;;
13710;SDS011;6927;51.256;9.410;2024-03-17T08:33:25;1999.90;;;999.90;;
13710;SDS011;6927;51.256;9.410;2024-03-17T08:35:55;1999.90;;;999.90;;
13710;SDS011;6927;51.256;9.410;2024-03-17T08:38:21;1999.90;;;999.90;;
13710;SDS011;6927;51.256;9.410;2024-03-17T08:40:48;1999.90;;;999.90;;
13710;SDS011;6927;51.256;9.410;2024-03-17T08:43:15;1999.90;;;999.90;;
13710;SDS011;6927;51.256;9.410;2024-03-17T08:45:40;1999.90;;;999.90;;
13710;SDS011;6927;51.256;9.410;2024-03-17T08:48:06;1999.90;;;999.90;;
13710;SDS011;6927;51.256;9.410;2024-03-17T08:50:31;1999.90;;;999.90;;
13710;SDS011;6927;51.256;9.410;2024-03-17T08:53:00;1999.90;;;999.90;;
13710;SDS011;6927;51.256;9.410;2024-03-17T08:55:26;1999.90;;;999.90;;
13710;SDS011;6927;51.256;9.410;2024-03-17T08:57:51;1999.90;;;999.90;;
13710;SDS011;6927;51.256;9.410;2024-03-17T09:00:17;1999.90;;;999.90;;
13710;SDS011;6927;51.256;9.410;2024-03-17T09:02:42;1566.45;;;814.00;;
13710;SDS011;6927;51.256;9.410;2024-03-17T09:05:08;208.05;;;200.43;;
13710;SDS011;6927;51.256;9.410;2024-03-17T09:07:33;166.02;;;159.63;;
13710;SDS011;6927;51.256;9.410;2024-03-17T09:09:59;192.88;;;185.48;;
13710;SDS011;6927;51.256;9.410;2024-03-17T09:12:25;215.88;;;207.40;;
13710;SDS011;6927;51.256;9.410;2024-03-17T09:14:52;377.23;;;363.67;;
13710;SDS011;6927;51.256;9.410;2024-03-17T09:17:18;487.35;;;469.67;;
13710;SDS011;6927;51.256;9.410;2024-03-17T09:19:45;272.38;;;262.75;;
13710;SDS011;6927;51.256;9.410;2024-03-17T09:22:12;208.05;;;200.60;;
13710;SDS011;6927;51.256;9.410;2024-03-17T09:24:38;193.65;;;186.20;;
13710;SDS011;6927;51.256;9.410;2024-03-17T09:27:04;260.88;;;251.38;;
13710;SDS011;6927;51.256;9.410;2024-03-17T09:29:30;119.20;;;114.25;;
13710;SDS011;6927;51.256;9.410;2024-03-17T09:31:55;101.03;;;97.03;;
13710;SDS011;6927;51.256;9.410;2024-03-17T09:34:21;227.93;;;219.80;;
13710;SDS011;6927;51.256;9.410;2024-03-17T09:36:47;187.38;;;180.20;;
13710;SDS011;6927;51.256;9.410;2024-03-17T09:39:12;139.55;;;134.13;;
13710;SDS011;6927;51.256;9.410;2024-03-17T09:41:39;293.60;;;283.00;;
13710;SDS011;6927;51.256;9.410;2024-03-17T09:44:05;248.98;;;240.15;;
13710;SDS011;6927;51.256;9.410;2024-03-17T09:46:34;319.88;;;308.30;;
13710;SDS011;6927;51.256;9.410;2024-03-17T09:49:00;306.15;;;295.40;;
13710;SDS011;6927;51.256;9.410;2024-03-17T09:51:26;142.40;;;137.05;;
13710;SDS011;6927;51.256;9.410;2024-03-17T09:53:52;154.45;;;148.63;;
13710;SDS011;6927;51.256;9.410;2024-03-17T09:56:18;175.75;;;168.90;;
13710;SDS011;6927;51.256;9.410;2024-03-17T09:58:46;97.00;;;93.25;;
13710;SDS011;6927;51.256;9.410;2024-03-17T10:01:16;131.23;;;125.95;;
13710;SDS011;6927;51.256;9.410;2024-03-17T10:03:48;177.55;;;171.05;;
13710;SDS011;6927;51.256;9.410;2024-03-17T10:06:21;275.10;;;265.20;;
13710;SDS011;6927;51.256;9.410;2024-03-17T10:08:53;294.35;;;284.20;;
13710;SDS011;6927;51.256;9.410;2024-03-17T10:11:21;265.50;;;255.95;;
13710;SDS011;6927;51.256;9.410;2024-03-17T10:14:09;163.98;;;157.85;;
13710;SDS011;6927;51.256;9.410;2024-03-17T10:16:37;164.95;;;158.88;;
13710;SDS011;6927;51.256;9.410;2024-03-17T10:19:14;278.90;;;269.10;;
13710;SDS011;6927;51.256;9.410;2024-03-17T10:21:46;299.20;;;288.83;;
13710;SDS011;6927;51.256;9.410;2024-03-17T10:24:23;273.50;;;263.85;;
13710;SDS011;6927;51.256;9.410;2024-03-17T10:26:50;226.95;;;218.70;;
13710;SDS011;6927;51.256;9.410;2024-03-17T10:31:52;73.70;;;70.65;;
13710;SDS011;6927;51.256;9.410;2024-03-17T10:34:19;54.47;;;52.30;;
13710;SDS011;6927;51.256;9.410;2024-03-17T10:36:48;79.57;;;76.22;;
13710;SDS011;6927;51.256;9.410;2024-03-17T10:39:31;71.72;;;68.70;;
13710;SDS011;6927;51.256;9.410;2024-03-17T10:41:58;79.60;;;76.45;;
13710;SDS011;6927;51.256;9.410;2024-03-17T10:44:29;62.63;;;60.17;;
13710;SDS011;6927;51.256;9.410;2024-03-17T10:47:05;61.08;;;58.47;;
13710;SDS011;6927;51.256;9.410;2024-03-17T10:49:38;65.80;;;63.05;;
13710;SDS011;6927;51.256;9.410;2024-03-17T10:52:07;69.68;;;66.82;;
13710;SDS011;6927;51.256;9.410;2024-03-17T10:54:38;82.63;;;79.32;;
13710;SDS011;6927;51.256;9.410;2024-03-17T10:57:13;74.97;;;71.90;;
13710;SDS011;6927;51.256;9.410;2024-03-17T10:59:58;61.92;;;59.42;;
13710;SDS011;6927;51.256;9.410;2024-03-17T11:02:30;71.00;;;68.10;;
13710;SDS011;6927;51.256;9.410;2024-03-17T11:07:31;70.05;;;67.10;;
13710;SDS011;6927;51.256;9.410;2024-03-17T11:09:58;66.30;;;63.42;;
13710;SDS011;6927;51.256;9.410;2024-03-17T11:12:41;82.15;;;78.90;;
13710;SDS011;6927;51.256;9.410;2024-03-17T11:17:55;69.32;;;66.45;;
13710;SDS011;6927;51.256;9.410;2024-03-17T11:20:42;94.82;;;91.03;;
13710;SDS011;6927;51.256;9.410;2024-03-17T11:23:08;122.25;;;117.40;;
13710;SDS011;6927;51.256;9.410;2024-03-17T11:28:00;133.60;;;128.48;;
13710;SDS011;6927;51.256;9.410;2024-03-17T11:30:42;93.20;;;89.45;;
13710;SDS011;6927;51.256;9.410;2024-03-17T11:46:46;77.28;;;73.68;;
13710;SDS011;6927;51.256;9.410;2024-03-17T11:49:27;74.30;;;71.22;;
13710;SDS011;6927;51.256;9.410;2024-03-17T11:51:56;71.32;;;68.38;;
13710;SDS011;6927;51.256;9.410;2024-03-17T11:54:28;88.13;;;84.68;;
13710;SDS011;6927;51.256;9.410;2024-03-17T11:56:55;165.38;;;158.77;;
13710;SDS011;6927;51.256;9.410;2024-03-17T11:59:29;227.30;;;219.00;;
13710;SDS011;6927;51.256;9.410;2024-03-17T12:01:55;236.48;;;227.85;;
13710;SDS011;6927;51.256;9.410;2024-03-17T12:04:21;177.93;;;171.35;;
13710;SDS011;6927;51.256;9.410;2024-03-17T12:06:54;232.25;;;223.98;;
13710;SDS011;6927;51.256;9.410;2024-03-17T12:12:00;127.97;;;123.05;;
13710;SDS011;6927;51.256;9.410;2024-03-17T12:14:29;88.50;;;84.97;;
13710;SDS011;6927;51.256;9.410;2024-03-17T12:16:55;71.50;;;68.53;;
13710;SDS011;6927;51.256;9.410;2024-03-17T12:19:23;76.57;;;73.10;;
13710;SDS011;6927;51.256;9.410;2024-03-17T12:21:50;57.47;;;55.10;;
13710;SDS011;6927;51.256;9.410;2024-03-17T12:24:18;66.05;;;63.35;;
13710;SDS011;6927;51.256;9.410;2024-03-17T12:26:45;71.45;;;68.53;;
13710;SDS011;6927;51.256;9.410;2024-03-17T12:29:21;69.85;;;67.15;;
13710;SDS011;6927;51.256;9.410;2024-03-17T12:31:47;70.38;;;67.68;;
13710;SDS011;6927;51.256;9.410;2024-03-17T12:34:14;73.72;;;70.93;;
13710;SDS011;6927;51.256;9.410;2024-03-17T12:36:40;69.95;;;67.22;;
13710;SDS011;6927;51.256;9.410;2024-03-17T12:39:19;68.93;;;66.10;;
13710;SDS011;6927;51.256;9.410;2024-03-17T12:41:46;69.40;;;66.75;;
13710;SDS011;6927;51.256;9.410;2024-03-17T12:44:26;69.28;;;66.32;;
13710;SDS011;6927;51.256;9.410;2024-03-17T12:46:55;67.20;;;64.45;;
13710;SDS011;6927;51.256;9.410;2024-03-17T12:49:21;56.42;;;54.17;;
13710;SDS011;6927;51.256;9.410;2024-03-17T12:51:50;63.72;;;61.08;;
13710;SDS011;6927;51.256;9.410;2024-03-17T12:54:15;62.13;;;59.72;;
13710;SDS011;6927;51.256;9.410;2024-03-17T12:56:45;56.03;;;53.92;;
13710;SDS011;6927;51.256;9.410;2024-03-17T12:59:42;64.85;;;61.97;;
13710;SDS011;6927;51.256;9.410;2024-03-17T13:02:26;64.88;;;62.28;;
13710;SDS011;6927;51.256;9.410;2024-03-17T13:05:14;59.80;;;57.53;;
13710;SDS011;6927;51.256;9.410;2024-03-17T13:07:42;1999.90;;;999.90;;
13710;SDS011;6927;51.256;9.410;2024-03-17T13:10:11;1999.90;;;999.90;;
13710;SDS011;6927;51.256;9.410;2024-03-17T13:12:41;1999.90;;;999.90;;
13710;SDS011;6927;51.256;9.410;2024-03-17T13:15:08;1999.90;;;999.90;;
13710;SDS011;6927;51.256;9.410;2024-03-17T13:17:38;1999.90;;;999.90;;
13710;SDS011;6927;51.256;9.410;2024-03-17T13:20:05;1999.90;;;999.90;;
13710;SDS011;6927;51.256;9.410;2024-03-17T13:22:36;1999.90;;;999.90;;
13710;SDS011;6927;51.256;9.410;2024-03-17T13:25:04;1999.90;;;999.90;;
13710;SDS011;6927;51.256;9.410;2024-03-17T13:27:30;1999.90;;;999.90;;
13710;SDS011;6927;51.256;9.410;2024-03-17T13:29:56;1999.90;;;999.90;;
13710;SDS011;6927;51.256;9.410;2024-03-17T13:32:22;1999.90;;;999.90;;
13710;SDS011;6927;51.256;9.410;2024-03-17T13:34:47;1999.90;;;999.90;;
13710;SDS011;6927;51.256;9.410;2024-03-17T13:37:13;1999.90;;;999.90;;
13710;SDS011;6927;51.256;9.410;2024-03-17T13:39:38;1999.90;;;999.90;;
13710;SDS011;6927;51.256;9.410;2024-03-17T13:42:04;1999.90;;;999.90;;
13710;SDS011;6927;51.256;9.410;2024-03-17T13:44:30;1999.90;;;999.90;;
13710;SDS011;6927;51.256;9.410;2024-03-17T13:46:56;1999.90;;;999.90;;
13710;SDS011;6927;51.256;9.410;2024-03-17T13:49:23;1999.90;;;999.90;;
13710;SDS011;6927;51.256;9.410;2024-03-17T13:51:48;1999.90;;;999.90;;
13710;SDS011;6927;51.256;9.410;2024-03-17T13:54:14;1999.90;;;999.90;;
13710;SDS011;6927;51.256;9.410;2024-03-17T13:56:40;1999.90;;;999.90;;
13710;SDS011;6927;51.256;9.410;2024-03-17T13:59:05;1999.90;;;999.90;;
13710;SDS011;6927;51.256;9.410;2024-03-17T14:01:31;1999.90;;;999.90;;
13710;SDS011;6927;51.256;9.410;2024-03-17T14:03:56;1999.90;;;999.90;;
13710;SDS011;6927;51.256;9.410;2024-03-17T14:06:22;1999.90;;;999.90;;
13710;SDS011;6927;51.256;9.410;2024-03-17T14:08:48;1999.90;;;999.90;;
13710;SDS011;6927;51.256;9.410;2024-03-17T14:11:13;1999.90;;;999.90;;
13710;SDS011;6927;51.256;9.410;2024-03-17T14:13:39;1999.90;;;999.90;;
13710;SDS011;6927;51.256;9.410;2024-03-17T14:16:05;1999.90;;;999.90;;
13710;SDS011;6927;51.256;9.410;2024-03-17T14:18:31;1999.90;;;999.90;;
13710;SDS011;6927;51.256;9.410;2024-03-17T14:20:57;1999.90;;;999.90;;
13710;SDS011;6927;51.256;9.410;2024-03-17T14:23:23;1999.90;;;999.90;;
13710;SDS011;6927;51.256;9.410;2024-03-17T14:25:49;1999.90;;;999.90;;
13710;SDS011;6927;51.256;9.410;2024-03-17T14:28:15;1999.90;;;999.90;;
13710;SDS011;6927;51.256;9.410;2024-03-17T14:30:41;1999.90;;;999.90;;
13710;SDS011;6927;51.256;9.410;2024-03-17T14:33:06;1999.90;;;999.90;;